Time;durP1;ratioP1;P1;durP2;ratioP2;P2;SDS_P1;SDS_P2;PMS_P1;PMS_P2;Temp;Humidity;BMP_temperature;BMP_pressure;BME280_temperature;BME280_humidity;BME280_pressure;Samples;Min_cycle;Max_cycle;Signal;HPM_P1;HPM_P2
2021/11/02 00:02:13;;;;;;;3.10;1.13;;;8.10;99.90;;;;;;5048812;28;20626;-71
2021/11/02 00:04:39;;;;;;;5.68;0.95;;;8.20;99.90;;;;;;5048604;28;20021;-72
2021/11/02 00:07:05;;;;;;;6.68;1.10;;;8.30;99.90;;;;;;5047863;28;20028;-71
2021/11/02 00:09:34;;;;;;;3.20;1.25;;;8.30;99.90;;;;;;5048028;28;20086;-71
2021/11/02 00:12:00;;;;;;;3.15;0.82;;;8.30;99.90;;;;;;5045037;28;20025;-72
2021/11/02 00:14:28;;;;;;;2.95;0.90;;;8.40;99.90;;;;;;5048542;28;20029;-71
2021/11/02 00:16:58;;;;;;;3.80;1.45;;;8.40;99.90;;;;;;5049264;28;20053;-72
2021/11/02 00:19:26;;;;;;;2.90;1.38;;;8.50;99.90;;;;;;5048128;28;20028;-71
2021/11/02 00:21:54;;;;;;;2.28;1.02;;;8.50;99.90;;;;;;5049306;28;20051;-72
2021/11/02 00:26:57;;;;;;;4.18;1.10;;;8.50;99.90;;;;;;5046054;28;20025;-71
2021/11/02 00:29:23;;;;;;;2.90;0.98;;;8.50;99.90;;;;;;5048263;28;20021;-72
2021/11/02 00:31:49;;;;;;;5.03;1.15;;;8.50;99.90;;;;;;5049889;28;20053;-71
2021/11/02 00:34:15;;;;;;;4.35;1.00;;;8.50;99.90;;;;;;5048739;28;20076;-72
2021/11/02 00:36:41;;;;;;;10.27;1.33;;;8.60;99.90;;;;;;5051484;28;20485;-72
2021/11/02 00:39:07;;;;;;;6.35;1.20;;;8.60;99.90;;;;;;5052049;28;20044;-72
2021/11/02 00:41:32;;;;;;;5.50;1.20;;;8.60;99.90;;;;;;5051906;28;20021;-71
2021/11/02 00:43:58;;;;;;;2.05;0.80;;;8.70;99.90;;;;;;5051915;28;20521;-71
2021/11/02 00:46:32;;;;;;;4.15;1.10;;;8.70;99.90;;;;;;5053306;28;20030;-71
2021/11/02 00:48:59;;;;;;;2.42;0.82;;;8.80;99.90;;;;;;5050472;28;20028;-72
2021/11/02 00:51:25;;;;;;;2.75;1.10;;;8.70;99.90;;;;;;5053018;28;20051;-72
2021/11/02 00:53:51;;;;;;;3.50;1.00;;;8.70;99.90;;;;;;5051540;28;20662;-71
2021/11/02 00:56:16;;;;;;;2.75;0.75;;;8.70;99.90;;;;;;5052026;28;20036;-71
2021/11/02 00:58:42;;;;;;;3.20;0.77;;;8.80;99.90;;;;;;5052578;28;20032;-71
2021/11/02 01:01:07;;;;;;;3.00;0.95;;;8.80;99.90;;;;;;5050751;28;20087;-71
2021/11/02 01:03:34;;;;;;;5.68;0.93;;;8.90;99.90;;;;;;5052284;28;20079;-72
2021/11/02 01:06:00;;;;;;;3.40;0.90;;;8.90;99.90;;;;;;5050731;28;20029;-72
2021/11/02 01:08:26;;;;;;;3.17;0.80;;;8.90;99.90;;;;;;5034709;28;20021;-72
2021/11/02 01:10:52;;;;;;;2.38;0.85;;;8.90;99.90;;;;;;5051485;28;20028;-72
2021/11/02 01:13:19;;;;;;;3.10;0.70;;;8.90;99.90;;;;;;5053290;28;20037;-72
2021/11/02 01:15:45;;;;;;;2.42;0.93;;;9.00;99.90;;;;;;5052279;28;20048;-72
2021/11/02 01:18:11;;;;;;;2.53;1.02;;;8.90;99.90;;;;;;5051643;28;20029;-72
2021/11/02 01:20:38;;;;;;;2.72;1.02;;;9.00;99.90;;;;;;5052387;28;20466;-72
2021/11/02 01:23:04;;;;;;;3.35;0.75;;;9.00;99.90;;;;;;5050555;28;20445;-72
2021/11/02 01:25:30;;;;;;;2.83;1.00;;;9.00;99.90;;;;;;5052886;28;20024;-72
2021/11/02 01:27:55;;;;;;;2.63;0.80;;;9.10;99.90;;;;;;5049933;28;20091;-72
2021/11/02 01:30:21;;;;;;;4.18;0.70;;;9.00;99.90;;;;;;5050163;28;20040;-72
2021/11/02 01:32:47;;;;;;;2.60;0.70;;;9.00;99.90;;;;;;5051962;28;20040;-71
2021/11/02 01:35:14;;;;;;;4.93;1.00;;;9.00;99.90;;;;;;5052677;28;20100;-72
2021/11/02 01:37:40;;;;;;;4.32;1.00;;;9.00;99.90;;;;;;5053392;28;20068;-71
2021/11/02 01:40:08;;;;;;;3.20;0.60;;;9.10;99.90;;;;;;5052531;28;20033;-72
2021/11/02 01:42:34;;;;;;;7.25;1.13;;;9.00;99.90;;;;;;5051719;28;20028;-72
2021/11/02 01:45:00;;;;;;;3.78;0.75;;;9.00;99.90;;;;;;5050063;28;20506;-72
2021/11/02 01:47:26;;;;;;;1.35;0.57;;;8.90;99.90;;;;;;5051604;28;20488;-72
2021/11/02 01:49:52;;;;;;;3.53;0.95;;;8.90;99.90;;;;;;5052666;28;20029;-72
2021/11/02 01:52:18;;;;;;;2.80;0.70;;;8.90;99.90;;;;;;5052524;28;20039;-72
2021/11/02 01:54:45;;;;;;;3.80;1.30;;;8.90;99.90;;;;;;5051816;28;20425;-72
2021/11/02 01:57:11;;;;;;;2.22;1.30;;;8.80;99.90;;;;;;5050670;28;20086;-72
2021/11/02 01:59:38;;;;;;;6.40;2.83;;;8.80;99.90;;;;;;5051360;28;20037;-72
2021/11/02 02:02:06;;;;;;;6.03;2.90;;;8.80;99.90;;;;;;5051694;28;20037;-72
2021/11/02 02:05:10;;;;;;;5.45;2.92;;;8.80;99.90;;;;;;5052274;28;20040;-72
2021/11/02 02:07:59;;;;;;;5.05;3.35;;;8.70;99.90;;;;;;5052642;28;20029;-71
2021/11/02 02:10:49;;;;;;;5.20;2.90;;;8.60;99.90;;;;;;5052238;28;20108;-72
2021/11/02 02:13:22;;;;;;;3.33;2.30;;;8.50;99.90;;;;;;5050900;28;20029;-72
2021/11/02 02:16:00;;;;;;;4.03;2.15;;;8.40;99.90;;;;;;5052336;28;20036;-71
2021/11/02 02:18:42;;;;;;;5.75;1.73;;;8.30;99.90;;;;;;5043022;28;20034;-72
2021/11/02 02:21:08;;;;;;;2.95;1.38;;;8.30;99.90;;;;;;5051187;28;20090;-72
2021/11/02 02:24:24;;;;;;;3.30;0.82;;;8.30;99.90;;;;;;5052063;28;20029;-72
2021/11/02 02:27:18;;;;;;;3.75;1.58;;;8.30;99.90;;;;;;5039921;28;20508;-72
2021/11/02 02:29:45;;;;;;;3.10;0.85;;;8.30;99.90;;;;;;5052008;28;20064;-72
2021/11/02 02:32:16;;;;;;;1.35;0.75;;;8.30;99.90;;;;;;5033438;28;20033;-72
2021/11/02 02:34:51;;;;;;;1.73;0.52;;;8.30;99.90;;;;;;5052173;28;20028;-72
2021/11/02 02:37:22;;;;;;;1.23;0.52;;;8.30;99.90;;;;;;5051581;28;20032;-71
2021/11/02 02:39:49;;;;;;;2.10;0.45;;;8.30;99.90;;;;;;5050813;28;20052;-72
2021/11/02 02:42:18;;;;;;;3.47;0.77;;;8.30;99.90;;;;;;5051051;28;20202;-72
2021/11/02 02:44:48;;;;;;;2.53;0.60;;;8.30;99.90;;;;;;5051356;28;20057;-72
2021/11/02 02:47:18;;;;;;;3.83;1.60;;;8.30;99.90;;;;;;5051305;28;20732;-72
2021/11/02 02:49:45;;;;;;;;;;;8.30;99.90;;;;;;5052493;28;20438;-72
2021/11/02 02:52:14;;;;;;;3.35;0.70;;;8.30;99.90;;;;;;5050753;28;19931;-72
2021/11/02 02:54:43;;;;;;;2.78;1.15;;;8.30;99.90;;;;;;5051661;28;20055;-72
2021/11/02 02:57:11;;;;;;;3.42;0.90;;;8.30;99.90;;;;;;5049828;28;20119;-72
2021/11/02 02:59:37;;;;;;;4.18;1.10;;;8.30;99.90;;;;;;5050786;28;20052;-72
2021/11/02 03:02:04;;;;;;;4.95;1.20;;;8.30;99.90;;;;;;5029345;28;20109;-72
2021/11/02 03:04:34;;;;;;;3.25;0.90;;;8.20;99.90;;;;;;5032326;28;20072;-71
2021/11/02 03:07:02;;;;;;;2.03;0.90;;;8.30;99.90;;;;;;5042340;28;20057;-71
2021/11/02 03:09:28;;;;;;;1.23;0.70;;;8.20;99.90;;;;;;5051927;28;20040;-72
2021/11/02 03:11:56;;;;;;;3.80;0.80;;;8.10;99.90;;;;;;5050118;28;20021;-71
2021/11/02 03:15:06;;;;;;;4.18;1.00;;;8.10;99.90;;;;;;5051511;28;20029;-72
2021/11/02 03:17:32;;;;;;;4.97;1.05;;;8.00;99.90;;;;;;5050716;28;20033;-72
2021/11/02 03:45:09;;;;;;;2.85;0.95;;;8.10;99.90;;;;;;5051056;28;20060;-72
2021/11/02 03:58:56;;;;;;;4.10;0.85;;;7.80;99.90;;;;;;5051467;28;20055;-72
2021/11/02 04:01:41;;;;;;;2.65;0.77;;;7.70;99.90;;;;;;5049927;28;20040;-71
2021/11/02 04:48:45;;;;;;;2.75;1.00;;;7.20;99.90;;;;;;5034306;28;20108;-71
2021/11/02 05:11:01;;;;;;;3.22;1.05;;;6.70;99.90;;;;;;5052067;28;20035;-72
2021/11/02 05:49:34;;;;;;;3.30;0.85;;;6.40;99.90;;;;;;5052433;28;20398;-72
2021/11/02 05:52:45;;;;;;;2.00;0.90;;;6.40;99.90;;;;;;5051358;28;20033;-72
2021/11/02 06:00:30;;;;;;;2.55;0.90;;;6.40;99.90;;;;;;5022852;28;20128;-72
2021/11/02 06:03:38;;;;;;;5.60;1.45;;;6.30;99.90;;;;;;5030919;28;20498;-71
2021/11/02 06:30:19;;;;;;;2.30;0.80;;;6.40;99.90;;;;;;5051293;28;20037;-71
2021/11/02 06:33:00;;;;;;;;;;;6.40;99.90;;;;;;5051579;28;20024;-69
2021/11/02 06:35:31;;;;;;;3.85;0.90;;;6.40;99.90;;;;;;5048945;28;19919;-70
2021/11/02 07:19:14;;;;;;;4.22;2.85;;;6.00;99.90;;;;;;5050302;28;20433;-72
2021/11/02 07:24:23;;;;;;;7.03;2.60;;;6.00;99.90;;;;;;5048739;28;20112;-73
2021/11/02 07:27:30;;;;;;;4.07;2.10;;;6.10;99.90;;;;;;5050699;28;20394;-73
2021/11/02 08:48:57;;;;;;;3.45;1.10;;;10.20;99.90;;;;;;5064133;28;20020;-78
2021/11/02 08:51:25;;;;;;;1.27;0.80;;;10.10;99.90;;;;;;5057343;28;20025;-72
2021/11/02 08:53:51;;;;;;;1.63;0.90;;;10.10;99.90;;;;;;5066283;28;20100;-76
2021/11/02 08:56:17;;;;;;;4.47;0.98;;;10.10;99.90;;;;;;5068019;28;20166;-75
2021/11/02 08:58:48;;;;;;;1.63;0.65;;;10.10;99.90;;;;;;5058054;28;20029;-78
2021/11/02 09:01:18;;;;;;;1.35;0.82;;;10.10;99.90;;;;;;5061501;28;20025;-82
2021/11/02 09:03:46;;;;;;;4.13;0.93;;;10.10;99.90;;;;;;5066140;28;20032;-80
2021/11/02 09:06:15;;;;;;;3.53;1.02;;;10.10;99.90;;;;;;5057873;28;20028;-80
2021/11/02 09:08:48;;;;;;;4.13;0.90;;;10.00;99.90;;;;;;5065355;28;20027;-75
2021/11/02 09:11:15;;;;;;;4.38;1.30;;;10.10;99.90;;;;;;5064110;28;20033;-74
2021/11/02 09:13:48;;;;;;;1.92;0.88;;;10.00;99.90;;;;;;5068324;28;20384;-75
2021/11/02 09:16:15;;;;;;;4.20;1.10;;;10.00;99.90;;;;;;5056175;28;20036;-75
2021/11/02 09:18:46;;;;;;;4.63;1.08;;;9.90;99.90;;;;;;5064089;28;20082;-75
2021/11/02 09:21:15;;;;;;;4.10;1.00;;;9.80;99.90;;;;;;5059744;28;20028;-78
2021/11/02 09:23:42;;;;;;;3.90;0.80;;;9.60;99.90;;;;;;5068667;28;20024;-75
2021/11/02 09:26:09;;;;;;;3.10;0.95;;;9.50;99.90;;;;;;5067655;28;20033;-72
2021/11/02 09:28:35;;;;;;;2.55;1.00;;;9.40;99.90;;;;;;5065390;28;20029;-74
2021/11/02 09:31:02;;;;;;;5.00;1.30;;;9.30;99.90;;;;;;5051276;28;20029;-76
2021/11/02 09:33:28;;;;;;;5.53;1.27;;;9.20;99.90;;;;;;5056692;28;20213;-73
2021/11/02 09:36:03;;;;;;;4.60;1.33;;;9.10;99.90;;;;;;5065426;28;20036;-74
2021/11/02 09:38:48;;;;;;;1.83;1.00;;;8.90;99.90;;;;;;5065600;28;20477;-74
2021/11/02 09:41:51;;;;;;;5.10;1.17;;;8.80;99.90;;;;;;5050125;28;20404;-70
2021/11/02 09:44:45;;;;;;;4.85;1.02;;;8.70;99.90;;;;;;5052441;28;20053;-70
2021/11/02 09:47:49;;;;;;;4.18;1.20;;;8.60;99.90;;;;;;5062427;28;20060;-72
2021/11/02 09:50:39;;;;;;;4.22;1.13;;;8.60;99.90;;;;;;5045107;28;20075;-71
2021/11/02 09:53:36;;;;;;;3.80;1.15;;;8.60;99.90;;;;;;5063192;28;20017;-75
2021/11/02 09:56:20;;;;;;;2.97;0.90;;;8.60;99.90;;;;;;5054675;28;20114;-76
2021/11/02 09:59:10;;;;;;;4.40;1.20;;;8.60;99.90;;;;;;5063493;28;20021;-77
2021/11/02 10:02:08;;;;;;;5.80;1.55;;;8.60;99.90;;;;;;5061198;28;20075;-71
2021/11/02 10:05:08;;;;;;;4.97;1.50;;;8.70;99.90;;;;;;5009503;28;20124;-71
2021/11/02 10:07:56;;;;;;;5.43;1.20;;;8.70;99.90;;;;;;5050825;28;20417;-69
2021/11/02 10:10:26;;;;;;;1.92;1.10;;;8.70;99.90;;;;;;5051184;28;20033;-69
2021/11/02 10:13:15;;;;;;;2.72;1.10;;;8.80;99.90;;;;;;5051407;28;20042;-69
2021/11/02 10:16:21;;;;;;;4.82;0.93;;;8.80;99.90;;;;;;5050818;28;20083;-69
2021/11/02 10:19:24;;;;;;;3.28;1.20;;;8.80;99.90;;;;;;5029404;28;20080;-70
2021/11/02 10:22:05;;;;;;;1.77;0.90;;;8.90;99.90;;;;;;5051608;28;20405;-70
2021/11/02 10:25:12;;;;;;;6.03;1.45;;;8.90;99.90;;;;;;5051268;28;20028;-70
2021/11/02 10:27:53;;;;;;;4.07;1.17;;;8.90;99.90;;;;;;5043684;28;20064;-70
2021/11/02 10:30:24;;;;;;;3.42;1.05;;;8.80;99.90;;;;;;5050907;28;20033;-70
2021/11/02 10:32:52;;;;;;;5.35;1.52;;;8.80;99.90;;;;;;5052394;28;20504;-69
2021/11/02 10:35:46;;;;;;;3.33;1.23;;;8.80;99.90;;;;;;5050337;28;20041;-70
2021/11/02 10:38:22;;;;;;;6.55;1.40;;;8.80;99.90;;;;;;5050767;28;20078;-69
2021/11/02 10:40:52;;;;;;;8.88;1.58;;;8.80;99.90;;;;;;5051579;28;20032;-69
2021/11/02 10:43:49;;;;;;;2.70;1.00;;;8.80;99.90;;;;;;5050240;28;20045;-72
2021/11/02 10:46:15;;;;;;;4.78;1.20;;;8.80;99.90;;;;;;5051776;28;20041;-72
2021/11/02 10:48:47;;;;;;;5.63;1.02;;;8.70;99.90;;;;;;5058886;28;20048;-71
2021/11/02 10:52:10;;;;;;;2.20;0.90;;;8.70;99.90;;;;;;5050245;28;20021;-71
2021/11/02 10:54:48;;;;;;;1.85;0.90;;;8.70;99.90;;;;;;5027723;28;20486;-71
2021/11/02 10:57:37;;;;;;;5.88;1.42;;;8.70;99.90;;;;;;5027924;28;20029;-71
2021/11/02 11:00:06;;;;;;;3.33;1.20;;;8.70;99.90;;;;;;5028036;28;20522;-71
2021/11/02 11:02:32;;;;;;;4.18;0.90;;;8.70;99.90;;;;;;5011540;28;20116;-71
2021/11/02 11:05:00;;;;;;;3.60;1.10;;;8.80;99.90;;;;;;5028545;28;20037;-71
2021/11/02 11:07:28;;;;;;;3.20;1.10;;;8.80;99.90;;;;;;5026760;28;20037;-70
2021/11/02 11:09:55;;;;;;;3.28;0.90;;;8.80;99.90;;;;;;5031166;28;20070;-70
2021/11/02 11:12:21;;;;;;;3.08;1.13;;;8.90;99.90;;;;;;5042129;28;20139;-70
2021/11/02 11:14:53;;;;;;;3.85;1.15;;;8.90;99.90;;;;;;5033573;28;20033;-70
2021/11/02 11:17:27;;;;;;;2.67;1.15;;;8.90;99.90;;;;;;5017835;28;20037;-70
2021/11/02 11:20:09;;;;;;;3.50;1.00;;;9.00;99.90;;;;;;5030375;28;20511;-70
2021/11/02 11:22:38;;;;;;;3.80;1.15;;;9.10;99.90;;;;;;5028442;28;20104;-70
2021/11/02 11:25:10;;;;;;;3.45;1.13;;;9.10;99.90;;;;;;5036483;28;20037;-70
2021/11/02 11:27:45;;;;;;;5.75;1.05;;;9.20;99.90;;;;;;5050407;28;20390;-70
2021/11/02 11:30:15;;;;;;;3.17;1.00;;;9.30;99.90;;;;;;5049786;28;20045;-71
2021/11/02 11:32:41;;;;;;;4.38;1.10;;;9.30;99.90;;;;;;5063441;28;20105;-70
2021/11/02 11:35:09;;;;;;;3.55;1.20;;;9.50;99.90;;;;;;5070775;28;20102;-71
2021/11/02 11:37:46;;;;;;;2.40;1.30;;;9.50;99.90;;;;;;5070643;28;20025;-70
2021/11/02 11:40:15;;;;;;;4.40;1.77;;;9.60;99.90;;;;;;5048920;28;20082;-70
2021/11/02 11:42:54;;;;;;;2.88;1.30;;;9.80;99.90;;;;;;5048104;28;20039;-71
2021/11/02 11:45:21;;;;;;;4.78;1.23;;;10.00;99.90;;;;;;5049321;28;20053;-70
2021/11/02 11:48:02;;;;;;;2.45;1.17;;;10.20;99.90;;;;;;5050182;28;20044;-71
2021/11/02 11:50:31;;;;;;;4.22;1.10;;;10.30;99.90;;;;;;5029412;28;20157;-70
2021/11/02 11:53:03;;;;;;;2.85;1.40;;;10.50;99.90;;;;;;5030536;28;20455;-70
2021/11/02 11:55:40;;;;;;;6.25;0.90;;;10.70;99.90;;;;;;5029692;28;20030;-70
2021/11/02 11:58:14;;;;;;;2.63;1.10;;;10.90;99.90;;;;;;5033005;28;20088;-71
2021/11/02 12:00:49;;;;;;;1.45;0.70;;;11.10;99.90;;;;;;5050136;28;20053;-71
2021/11/02 12:03:50;;;;;;;0.95;0.80;;;11.30;99.90;;;;;;5048862;28;20029;-71
2021/11/02 12:06:16;;;;;;;1.70;1.13;;;11.40;99.90;;;;;;5049601;28;20021;-71
2021/11/02 12:08:58;;;;;;;1.77;0.90;;;11.50;99.90;;;;;;5050386;28;20104;-71
2021/11/02 12:11:31;;;;;;;2.33;0.90;;;11.60;99.90;;;;;;5048315;28;20044;-71
2021/11/02 12:14:20;;;;;;;2.25;0.80;;;11.50;99.90;;;;;;5051037;28;20788;-70
2021/11/02 12:16:47;;;;;;;1.98;0.65;;;11.50;99.90;;;;;;5047485;28;20120;-70
2021/11/02 12:19:40;;;;;;;3.28;0.68;;;11.30;99.90;;;;;;5048765;28;20087;-70
2021/11/02 12:22:12;;;;;;;1.70;0.50;;;11.30;99.90;;;;;;5050588;28;20422;-70
2021/11/02 12:24:42;;;;;;;0.60;0.50;;;11.20;99.90;;;;;;5049060;28;20133;-71
2021/11/02 12:27:18;;;;;;;0.60;0.32;;;11.00;99.90;;;;;;5048322;28;20057;-70
2021/11/02 12:29:48;;;;;;;0.55;0.40;;;10.80;99.90;;;;;;5050428;28;20033;-70
2021/11/02 12:32:17;;;;;;;0.35;0.35;;;10.70;99.90;;;;;;5052135;28;20025;-71
2021/11/02 12:34:50;;;;;;;1.33;0.50;;;10.60;99.90;;;;;;5054410;28;20041;-70
2021/11/02 12:37:17;;;;;;;1.02;0.50;;;10.50;99.90;;;;;;5053735;28;20441;-70
2021/11/02 12:39:44;;;;;;;1.15;0.20;;;10.50;99.90;;;;;;5053864;28;20474;-70
2021/11/02 12:42:20;;;;;;;0.68;0.40;;;10.50;99.90;;;;;;5052081;28;20032;-70
2021/11/02 12:44:46;;;;;;;0.47;0.30;;;10.50;99.90;;;;;;5053941;28;20057;-70
2021/11/02 12:47:14;;;;;;;1.13;0.40;;;10.60;99.90;;;;;;5052903;28;20064;-70
2021/11/02 12:49:52;;;;;;;0.35;0.30;;;10.60;99.90;;;;;;5052547;28;20121;-70
2021/11/02 12:52:24;;;;;;;0.70;0.25;;;10.60;99.90;;;;;;5052808;28;20109;-70
2021/11/02 12:55:06;;;;;;;1.98;0.20;;;10.70;99.90;;;;;;5055032;28;20053;-69
2021/11/02 12:57:37;;;;;;;1.33;0.60;;;10.70;99.90;;;;;;5054119;28;20103;-70
2021/11/02 13:00:07;;;;;;;0.32;0.20;;;10.80;99.90;;;;;;5053918;28;20036;-70
2021/11/02 13:02:42;;;;;;;0.57;0.20;;;11.00;99.90;;;;;;5053628;28;20083;-70
2021/11/02 13:05:25;;;;;;;0.28;0.17;;;11.30;99.90;;;;;;5053701;28;20036;-70
2021/11/02 13:08:08;;;;;;;0.10;0.10;;;11.60;99.90;;;;;;5054258;28;20025;-70
2021/11/02 13:10:35;;;;;;;0.50;0.20;;;11.90;99.90;;;;;;5052583;28;20492;-71
2021/11/02 13:13:10;;;;;;;0.60;0.20;;;12.30;99.90;;;;;;5053993;28;20037;-71
2021/11/02 13:15:53;;;;;;;0.52;0.20;;;12.60;99.90;;;;;;5053472;28;20036;-71
2021/11/02 13:18:38;;;;;;;1.27;0.30;;;12.70;99.90;;;;;;5052990;28;20047;-71
2021/11/02 13:21:29;;;;;;;0.20;0.20;;;12.50;99.90;;;;;;5053128;28;20036;-71
2021/11/02 13:23:59;;;;;;;;;;;12.30;99.90;;;;;;5053750;28;20488;-70
2021/11/02 13:26:25;;;;;;;0.80;0.30;;;12.00;99.90;;;;;;5052023;28;20392;-70
2021/11/02 13:28:53;;;;;;;0.30;0.20;;;11.70;99.90;;;;;;5052594;28;20035;-70
2021/11/02 13:31:35;;;;;;;0.45;0.20;;;11.40;99.90;;;;;;5051328;28;20033;-70
2021/11/02 13:34:03;;;;;;;0.30;0.30;;;11.20;99.90;;;;;;5053373;28;20359;-71
2021/11/02 13:36:32;;;;;;;0.20;0.20;;;11.10;99.90;;;;;;5052514;28;20505;-71
2021/11/02 13:39:14;;;;;;;1.88;0.10;;;11.00;99.90;;;;;;5053133;28;20107;-70
2021/11/02 13:41:49;;;;;;;0.20;0.10;;;10.90;99.90;;;;;;5052553;28;20098;-70
2021/11/02 13:44:15;;;;;;;0.38;0.20;;;10.80;99.90;;;;;;5051568;28;20563;-70
2021/11/02 13:46:47;;;;;;;1.48;0.40;;;10.70;99.90;;;;;;5051622;28;20037;-70
2021/11/02 13:49:15;;;;;;;0.30;0.30;;;10.70;99.90;;;;;;5052627;28;20471;-70
2021/11/02 13:51:41;;;;;;;0.55;0.35;;;10.60;99.90;;;;;;5052931;28;20029;-70
2021/11/02 13:54:08;;;;;;;0.10;0.10;;;10.70;99.90;;;;;;5053260;28;20032;-70
2021/11/02 13:56:37;;;;;;;0.50;0.10;;;10.70;99.90;;;;;;5051767;28;20024;-71
2021/11/02 13:59:07;;;;;;;1.75;0.10;;;10.70;99.90;;;;;;5052294;28;20347;-71
2021/11/02 14:01:52;;;;;;;0.28;0.20;;;10.60;99.90;;;;;;5052025;28;20449;-71
2021/11/02 14:04:32;;;;;;;0.10;0.10;;;10.60;99.90;;;;;;5050641;28;20032;-70
2021/11/02 14:07:06;;;;;;;1.00;0.30;;;10.50;99.90;;;;;;5052582;28;20017;-70
2021/11/02 14:09:37;;;;;;;0.40;0.10;;;10.40;99.90;;;;;;5052129;28;20087;-70
2021/11/02 14:12:22;;;;;;;0.55;0.25;;;10.40;99.90;;;;;;5051289;28;20029;-70
2021/11/02 14:14:47;;;;;;;0.32;0.17;;;10.40;99.90;;;;;;5052754;28;20183;-71
2021/11/02 14:17:23;;;;;;;0.30;0.30;;;10.60;99.90;;;;;;5052228;28;20553;-71
2021/11/02 14:19:50;;;;;;;0.25;0.20;;;10.70;99.90;;;;;;5052651;28;20152;-72
2021/11/02 14:22:40;;;;;;;0.52;0.38;;;10.90;99.90;;;;;;5051845;28;20029;-70
2021/11/02 14:25:33;;;;;;;0.20;0.20;;;11.10;99.90;;;;;;5048688;28;20038;-70
2021/11/02 14:28:00;;;;;;;0.30;0.20;;;11.20;99.90;;;;;;5048666;28;20048;-70
2021/11/02 14:30:32;;;;;;;0.38;0.10;;;11.20;99.90;;;;;;5051679;28;20033;-71
2021/11/02 14:33:11;;;;;;;2.00;0.22;;;11.20;99.90;;;;;;5052277;28;20043;-70
2021/11/02 14:35:49;;;;;;;0.60;0.20;;;11.10;99.90;;;;;;5051577;28;20025;-71
2021/11/02 14:38:18;;;;;;;0.20;0.20;;;11.00;99.90;;;;;;5051777;28;20029;-71
2021/11/02 14:40:48;;;;;;;1.23;0.30;;;11.10;99.90;;;;;;5051997;28;20025;-71
2021/11/02 14:43:22;;;;;;;1.27;0.22;;;11.00;99.90;;;;;;5051214;28;20489;-70
2021/11/02 14:45:50;;;;;;;0.43;0.17;;;10.90;99.90;;;;;;5051762;28;20057;-70
2021/11/02 14:48:38;;;;;;;2.85;1.40;;;10.80;99.90;;;;;;5050650;28;20029;-69
2021/11/02 14:51:13;;;;;;;2.08;0.63;;;10.70;99.90;;;;;;5052245;28;20040;-70
2021/11/02 14:53:42;;;;;;;2.42;0.30;;;10.60;99.90;;;;;;5051481;28;20358;-71
2021/11/02 14:56:15;;;;;;;0.60;0.20;;;10.60;99.90;;;;;;5051386;28;20044;-71
2021/11/02 14:58:41;;;;;;;0.40;0.20;;;10.60;99.90;;;;;;5048182;28;20037;-71
2021/11/02 15:01:33;;;;;;;0.40;0.10;;;10.50;99.90;;;;;;5050919;28;20421;-71
2021/11/02 15:04:06;;;;;;;0.52;0.30;;;10.50;99.90;;;;;;5050097;28;20041;-71
2021/11/02 15:06:38;;;;;;;3.05;0.40;;;10.50;99.90;;;;;;5051051;28;20036;-71
2021/11/02 15:09:13;;;;;;;1.50;0.22;;;10.50;99.90;;;;;;5051157;28;20052;-72
2021/11/02 15:11:41;;;;;;;0.70;0.20;;;10.50;99.90;;;;;;5051558;28;20029;-70
2021/11/02 15:14:12;;;;;;;0.98;0.40;;;10.50;99.90;;;;;;5051556;28;20054;-69
2021/11/02 15:16:42;;;;;;;0.32;0.22;;;10.40;99.90;;;;;;5049032;28;20048;-70
2021/11/02 15:19:10;;;;;;;0.63;0.30;;;10.30;99.90;;;;;;5050842;28;20029;-71
2021/11/02 15:21:40;;;;;;;0.20;0.10;;;10.20;99.90;;;;;;5047513;28;20025;-71
2021/11/02 15:24:19;;;;;;;1.25;0.30;;;10.00;99.90;;;;;;5048722;28;20025;-73
2021/11/02 15:26:46;;;;;;;1.40;0.30;;;9.90;99.90;;;;;;5049812;28;20041;-72
2021/11/02 15:29:12;;;;;;;1.10;0.50;;;9.70;99.90;;;;;;5050670;28;20108;-73
2021/11/02 15:31:38;;;;;;;0.85;0.40;;;9.60;99.90;;;;;;5050731;28;20112;-73
2021/11/02 15:34:21;;;;;;;1.77;0.50;;;9.50;99.90;;;;;;5052376;28;20478;-72
2021/11/02 15:36:47;;;;;;;0.57;0.45;;;9.40;99.90;;;;;;5067206;28;20351;-73
2021/11/02 15:39:13;;;;;;;0.30;0.30;;;9.30;99.90;;;;;;5054073;28;20037;-72
2021/11/02 15:41:39;;;;;;;0.50;0.20;;;9.20;99.90;;;;;;5063315;28;20029;-72
2021/11/02 15:44:09;;;;;;;1.15;0.47;;;9.10;99.90;;;;;;5060021;28;20057;-72
2021/11/02 15:46:39;;;;;;;0.25;0.10;;;9.00;99.90;;;;;;5055755;28;20060;-69
2021/11/02 15:49:07;;;;;;;0.50;0.30;;;8.80;99.90;;;;;;5067131;28;20119;-71
2021/11/02 15:51:38;;;;;;;0.30;0.30;;;8.70;99.90;;;;;;5055827;28;20024;-72
2021/11/02 15:54:09;;;;;;;1.20;0.25;;;8.70;99.90;;;;;;5060572;28;20104;-73
2021/11/02 15:56:35;;;;;;;3.28;1.40;;;8.60;99.90;;;;;;5063960;28;20029;-72
2021/11/02 15:59:04;;;;;;;1.85;0.55;;;8.50;99.90;;;;;;5066758;28;20051;-72
2021/11/02 16:01:44;;;;;;;0.73;0.50;;;8.40;99.90;;;;;;5055414;28;20377;-70
2021/11/02 16:04:27;;;;;;;0.40;0.30;;;8.30;99.90;;;;;;5059787;28;20036;-71
2021/11/02 16:07:05;;;;;;;0.40;0.38;;;8.30;99.90;;;;;;5069085;28;20384;-73
2021/11/02 16:09:55;;;;;;;0.80;0.40;;;8.20;99.90;;;;;;5059775;28;20043;-75
2021/11/02 16:12:36;;;;;;;0.55;0.38;;;8.20;99.90;;;;;;5061703;28;20033;-74
2021/11/02 16:15:18;;;;;;;1.20;0.55;;;8.20;99.90;;;;;;5070926;28;20045;-73
2021/11/02 16:17:47;;;;;;;0.70;0.43;;;8.10;99.90;;;;;;5061161;28;20036;-71
2021/11/02 16:20:36;;;;;;;1.20;0.50;;;8.10;99.90;;;;;;5073973;28;20028;-73
2021/11/02 16:23:04;;;;;;;0.77;0.50;;;8.10;99.90;;;;;;5054992;28;20036;-73
2021/11/02 16:25:31;;;;;;;1.05;0.63;;;8.10;99.90;;;;;;5054316;28;20025;-74
2021/11/02 16:28:06;;;;;;;1.85;0.70;;;8.10;99.90;;;;;;5056340;28;20025;-74
2021/11/02 16:30:43;;;;;;;0.77;0.57;;;8.00;99.90;;;;;;5054800;28;20131;-74
2021/11/02 16:33:10;;;;;;;1.90;0.80;;;8.00;99.90;;;;;;5054710;28;20135;-73
2021/11/02 16:35:46;;;;;;;5.97;0.93;;;8.00;99.90;;;;;;5053496;28;20032;-72
2021/11/02 16:38:38;;;;;;;0.93;0.52;;;8.10;99.90;;;;;;5054462;28;20079;-72
2021/11/02 16:41:19;;;;;;;2.25;0.75;;;8.20;99.90;;;;;;5053772;28;20502;-71
2021/11/02 16:43:51;;;;;;;1.00;0.50;;;8.20;99.90;;;;;;5053815;28;20036;-71
2021/11/02 16:46:33;;;;;;;1.30;0.50;;;8.20;99.90;;;;;;5053264;28;20381;-73
2021/11/02 16:49:03;;;;;;;0.77;0.50;;;8.10;99.90;;;;;;5053742;28;20541;-72
2021/11/02 16:51:56;;;;;;;0.93;0.60;;;8.10;99.90;;;;;;5053760;28;20025;-73
2021/11/02 16:54:31;;;;;;;1.27;0.80;;;8.00;99.90;;;;;;5053507;28;20079;-73
2021/11/02 16:57:16;;;;;;;4.05;1.25;;;7.90;99.90;;;;;;5054413;28;20046;-76
2021/11/02 16:59:55;;;;;;;2.75;1.58;;;7.90;99.90;;;;;;5054575;28;20060;-79
2021/11/02 17:02:37;;;;;;;3.50;1.77;;;7.80;99.90;;;;;;5054280;28;20037;-78
2021/11/02 17:05:18;;;;;;;1.77;1.10;;;7.70;99.90;;;;;;5054779;28;20021;-78
2021/11/02 17:07:49;;;;;;;1.55;1.13;;;7.60;99.90;;;;;;5054101;28;20104;-77
2021/11/02 17:10:26;;;;;;;1.40;0.90;;;7.50;99.90;;;;;;5053823;28;20401;-77
2021/11/02 17:13:03;;;;;;;1.40;1.00;;;7.40;99.90;;;;;;5053495;28;20029;-74
2021/11/02 17:15:36;;;;;;;1.95;0.85;;;7.40;99.90;;;;;;5053466;28;20492;-74
2021/11/02 17:18:06;;;;;;;1.60;0.80;;;7.40;99.90;;;;;;5054013;28;20021;-73
2021/11/02 17:20:34;;;;;;;3.05;0.90;;;7.40;99.90;;;;;;5053303;28;20040;-73
2021/11/02 17:23:00;;;;;;;2.28;1.20;;;7.40;99.90;;;;;;5052906;28;20037;-73
2021/11/02 17:25:28;;;;;;;3.28;1.40;;;7.40;99.90;;;;;;5053422;28;20370;-74
2021/11/02 17:27:53;;;;;;;1.20;1.10;;;7.30;99.90;;;;;;5053944;28;20437;-73
2021/11/02 17:30:23;;;;;;;1.98;1.60;;;7.30;99.90;;;;;;5053587;28;20025;-72
2021/11/02 17:32:49;;;;;;;4.22;2.03;;;7.30;99.90;;;;;;5053876;28;20033;-72
2021/11/02 17:35:16;;;;;;;2.47;1.50;;;7.20;99.90;;;;;;5053186;28;20075;-72
2021/11/02 17:37:52;;;;;;;3.33;2.13;;;7.10;99.90;;;;;;5052985;28;20043;-74
2021/11/02 17:40:19;;;;;;;2.38;1.98;;;7.10;99.90;;;;;;5053943;28;20021;-74
2021/11/02 17:42:46;;;;;;;2.35;1.80;;;7.00;99.90;;;;;;5053495;28;20059;-72
2021/11/02 17:45:13;;;;;;;3.65;2.17;;;7.00;99.90;;;;;;5053399;28;20056;-73
2021/11/02 17:47:42;;;;;;;2.25;1.75;;;6.90;99.90;;;;;;5053123;28;20031;-73
2021/11/02 17:50:08;;;;;;;2.25;1.60;;;6.90;99.90;;;;;;5053781;28;20137;-72
2021/11/02 17:52:34;;;;;;;2.70;1.50;;;6.80;99.90;;;;;;5053036;28;20039;-71
2021/11/02 17:55:01;;;;;;;3.67;1.77;;;6.70;99.90;;;;;;5053572;28;20075;-72
2021/11/02 17:57:27;;;;;;;2.50;1.65;;;6.60;99.90;;;;;;5052961;28;20044;-71
2021/11/02 17:59:53;;;;;;;2.90;1.80;;;6.50;99.90;;;;;;5053520;28;20071;-72
2021/11/02 18:02:19;;;;;;;4.13;2.53;;;6.50;99.90;;;;;;5053165;28;20033;-71
2021/11/02 18:04:47;;;;;;;7.47;3.88;;;6.40;99.90;;;;;;5053375;28;20083;-72
2021/11/02 18:07:13;;;;;;;5.80;3.95;;;6.40;99.90;;;;;;5053355;28;20075;-71
2021/11/02 18:09:39;;;;;;;5.65;3.55;;;6.40;99.90;;;;;;5052954;28;20032;-71
2021/11/02 18:12:06;;;;;;;8.88;3.33;;;6.30;99.90;;;;;;5053204;28;20048;-70
2021/11/02 18:14:32;;;;;;;3.63;2.63;;;6.30;99.90;;;;;;5052351;28;20127;-73
2021/11/02 18:16:58;;;;;;;5.68;2.80;;;6.30;99.90;;;;;;5053273;28;20078;-72
2021/11/02 18:19:24;;;;;;;3.97;2.00;;;6.30;99.90;;;;;;5052545;28;20352;-72
2021/11/02 18:21:51;;;;;;;5.25;1.92;;;6.40;99.90;;;;;;5052963;28;20026;-72